Atco, New Jersey
Current Conditions -  °F | °C
As of 7:54 PM on Saturday 20 Dec 2014 (Local Time) from KVAY Reporting Station
Overcast Overcast  
Wind Chill: 30°   Ceiling: 3100
Heat Index: 30°   Visibility: 10mi
Dew Point: 23°   Wind: 3mph
Humidity: 75%   Direction: 200°SSW
Pressure: 30.3"   Gusts: NA
Location:  39.77°N, 74.89°W
Report Text: KVAY 210054Z AUTO 20003KT 10SM OVC031 M01/M05 A3030 RMK AO2 SLP261 T10111050
Loading
Personal Weather Stations






























Interactive Weather Map New forecast layout! Learn more

10-Day Weather Forecast

Advertisements
Track Severe Weather on mobile